Hallie, Wisconsin
Current Conditions -  °F | °C
As of 5:56 AM on Thursday 27 Nov 2014 (Local Time) from KEAU Reporting Station
Clear Clear  
Wind Chill: -13°   Ceiling: Unl
Heat Index:   Visibility: 10mi
Dew Point: -5°   Wind: 8mph
Humidity: 75%   Direction: 330°NNW
Pressure: 30.42"   Gusts: NA
Location:  44.9743°N, 91.4379°W
Report Text: KEAU 271156Z 33007KT 10SM CLR M17/M21 A3042 RMK AO2 SLP321 60000 T11721206 11083 21172 52013
Loading
Personal Weather Stations






























Interactive Weather Map New forecast layout! Learn more

10-Day Weather Forecast

Advertisements
Track Severe Weather on mobile